sensor_id;sensor_type;location;lat;lon;timestamp;temperature;humidity
13332;DHT22;6735;51.456;12.626;2022-12-07T00:01:15;3.60;89.30
13332;DHT22;6735;51.456;12.626;2022-12-07T00:03:41;3.50;89.40
13332;DHT22;6735;51.456;12.626;2022-12-07T00:06:08;3.60;89.40
13332;DHT22;6735;51.456;12.626;2022-12-07T00:08:35;3.50;89.40
13332;DHT22;6735;51.456;12.626;2022-12-07T00:11:06;3.60;89.50
13332;DHT22;6735;51.456;12.626;2022-12-07T00:13:33;3.60;89.40
13332;DHT22;6735;51.456;12.626;2022-12-07T00:16:03;3.60;89.40
13332;DHT22;6735;51.456;12.626;2022-12-07T00:18:29;3.50;89.50
13332;DHT22;6735;51.456;12.626;2022-12-07T00:21:12;3.60;89.50
13332;DHT22;6735;51.456;12.626;2022-12-07T00:23:39;3.60;89.50
13332;DHT22;6735;51.456;12.626;2022-12-07T00:26:10;3.60;89.40
13332;DHT22;6735;51.456;12.626;2022-12-07T00:28:36;3.50;89.30
13332;DHT22;6735;51.456;12.626;2022-12-07T00:31:22;3.50;89.30
13332;DHT22;6735;51.456;12.626;2022-12-07T00:33:48;3.50;89.40
13332;DHT22;6735;51.456;12.626;2022-12-07T00:36:16;3.50;89.30
13332;DHT22;6735;51.456;12.626;2022-12-07T00:38:42;3.40;89.40
13332;DHT22;6735;51.456;12.626;2022-12-07T00:41:11;3.40;89.40
13332;DHT22;6735;51.456;12.626;2022-12-07T00:43:37;3.40;89.50
13332;DHT22;6735;51.456;12.626;2022-12-07T00:46:03;3.40;89.40
13332;DHT22;6735;51.456;12.626;2022-12-07T00:48:28;3.40;89.50
13332;DHT22;6735;51.456;12.626;2022-12-07T00:50:54;3.30;89.50
13332;DHT22;6735;51.456;12.626;2022-12-07T00:53:20;3.30;89.50
13332;DHT22;6735;51.456;12.626;2022-12-07T00:55:45;3.30;89.50
13332;DHT22;6735;51.456;12.626;2022-12-07T00:58:11;3.30;89.50
13332;DHT22;6735;51.456;12.626;2022-12-07T01:00:38;3.30;89.60
13332;DHT22;6735;51.456;12.626;2022-12-07T01:03:05;3.30;89.70
13332;DHT22;6735;51.456;12.626;2022-12-07T01:05:31;3.30;89.70
13332;DHT22;6735;51.456;12.626;2022-12-07T01:07:57;3.30;89.70
13332;DHT22;6735;51.456;12.626;2022-12-07T01:10:23;3.30;89.60
13332;DHT22;6735;51.456;12.626;2022-12-07T01:12:48;3.30;89.60
13332;DHT22;6735;51.456;12.626;2022-12-07T01:15:14;3.20;89.50
13332;DHT22;6735;51.456;12.626;2022-12-07T01:17:39;3.20;89.50
13332;DHT22;6735;51.456;12.626;2022-12-07T01:20:05;3.20;89.60
13332;DHT22;6735;51.456;12.626;2022-12-07T01:22:35;3.10;89.50
13332;DHT22;6735;51.456;12.626;2022-12-07T01:25:01;3.10;89.40
13332;DHT22;6735;51.456;12.626;2022-12-07T01:27:27;3.10;89.50
13332;DHT22;6735;51.456;12.626;2022-12-07T01:29:52;3.00;89.50
13332;DHT22;6735;51.456;12.626;2022-12-07T01:32:17;2.90;89.50
13332;DHT22;6735;51.456;12.626;2022-12-07T01:34:43;2.90;89.40
13332;DHT22;6735;51.456;12.626;2022-12-07T01:37:08;2.80;89.30
13332;DHT22;6735;51.456;12.626;2022-12-07T01:39:34;2.80;89.30
13332;DHT22;6735;51.456;12.626;2022-12-07T01:41:59;2.70;89.30
13332;DHT22;6735;51.456;12.626;2022-12-07T01:44:27;2.70;89.30
13332;DHT22;6735;51.456;12.626;2022-12-07T01:46:56;2.70;89.40
13332;DHT22;6735;51.456;12.626;2022-12-07T01:52:24;2.50;89.40
13332;DHT22;6735;51.456;12.626;2022-12-07T01:54:53;2.40;89.40
13332;DHT22;6735;51.456;12.626;2022-12-07T01:57:19;2.40;89.20
13332;DHT22;6735;51.456;12.626;2022-12-07T01:59:47;2.30;89.20
13332;DHT22;6735;51.456;12.626;2022-12-07T02:02:23;2.20;89.30
13332;DHT22;6735;51.456;12.626;2022-12-07T02:04:51;2.10;89.40
13332;DHT22;6735;51.456;12.626;2022-12-07T02:07:18;2.10;89.30
13332;DHT22;6735;51.456;12.626;2022-12-07T02:09:45;2.10;89.40
13332;DHT22;6735;51.456;12.626;2022-12-07T02:12:10;2.00;89.40
13332;DHT22;6735;51.456;12.626;2022-12-07T02:14:36;2.00;89.50
13332;DHT22;6735;51.456;12.626;2022-12-07T02:17:14;1.90;89.60
13332;DHT22;6735;51.456;12.626;2022-12-07T02:23:04;1.90;89.60
13332;DHT22;6735;51.456;12.626;2022-12-07T02:31:16;1.70;89.60
13332;DHT22;6735;51.456;12.626;2022-12-07T02:33:54;1.70;89.70
13332;DHT22;6735;51.456;12.626;2022-12-07T02:36:28;1.70;89.70
13332;DHT22;6735;51.456;12.626;2022-12-07T02:39:02;1.60;89.80
13332;DHT22;6735;51.456;12.626;2022-12-07T02:41:36;1.60;89.60
13332;DHT22;6735;51.456;12.626;2022-12-07T02:44:10;1.60;89.60
13332;DHT22;6735;51.456;12.626;2022-12-07T02:46:43;1.60;89.70
13332;DHT22;6735;51.456;12.626;2022-12-07T02:49:10;1.60;89.80
13332;DHT22;6735;51.456;12.626;2022-12-07T02:51:40;1.50;89.90
13332;DHT22;6735;51.456;12.626;2022-12-07T02:54:14;1.50;89.80
13332;DHT22;6735;51.456;12.626;2022-12-07T03:00:05;1.40;89.80
13332;DHT22;6735;51.456;12.626;2022-12-07T03:16:27;1.30;89.90
13332;DHT22;6735;51.456;12.626;2022-12-07T03:19:00;1.30;90.00
13332;DHT22;6735;51.456;12.626;2022-12-07T03:21:34;1.30;90.10
13332;DHT22;6735;51.456;12.626;2022-12-07T03:24:04;1.30;90.20
13332;DHT22;6735;51.456;12.626;2022-12-07T03:26:36;1.30;90.20
13332;DHT22;6735;51.456;12.626;2022-12-07T03:29:23;1.30;90.30
13332;DHT22;6735;51.456;12.626;2022-12-07T03:34:47;1.40;90.30
13332;DHT22;6735;51.456;12.626;2022-12-07T03:37:36;1.50;90.30
13332;DHT22;6735;51.456;12.626;2022-12-07T03:42:51;1.60;90.30
13332;DHT22;6735;51.456;12.626;2022-12-07T03:45:17;1.60;90.20
13332;DHT22;6735;51.456;12.626;2022-12-07T03:47:52;1.60;90.20
13332;DHT22;6735;51.456;12.626;2022-12-07T03:50:36;1.60;90.20
13332;DHT22;6735;51.456;12.626;2022-12-07T03:53:10;1.60;90.30
13332;DHT22;6735;51.456;12.626;2022-12-07T03:55:40;1.60;90.20
13332;DHT22;6735;51.456;12.626;2022-12-07T03:58:10;1.60;90.30
13332;DHT22;6735;51.456;12.626;2022-12-07T04:00:36;1.70;90.30
13332;DHT22;6735;51.456;12.626;2022-12-07T04:03:02;1.60;90.20
13332;DHT22;6735;51.456;12.626;2022-12-07T04:05:28;1.70;90.20
13332;DHT22;6735;51.456;12.626;2022-12-07T04:07:53;1.70;90.10
13332;DHT22;6735;51.456;12.626;2022-12-07T04:10:19;1.70;90.20
13332;DHT22;6735;51.456;12.626;2022-12-07T04:12:45;1.70;90.10
13332;DHT22;6735;51.456;12.626;2022-12-07T04:15:11;1.70;90.00
13332;DHT22;6735;51.456;12.626;2022-12-07T04:17:36;1.70;90.10
13332;DHT22;6735;51.456;12.626;2022-12-07T04:20:03;1.80;90.10
13332;DHT22;6735;51.456;12.626;2022-12-07T04:22:29;1.80;90.00
13332;DHT22;6735;51.456;12.626;2022-12-07T04:24:55;1.80;90.00
13332;DHT22;6735;51.456;12.626;2022-12-07T04:27:20;1.80;89.90
13332;DHT22;6735;51.456;12.626;2022-12-07T04:29:46;1.80;89.90
13332;DHT22;6735;51.456;12.626;2022-12-07T04:32:11;1.80;90.00
13332;DHT22;6735;51.456;12.626;2022-12-07T04:34:37;1.90;90.20
13332;DHT22;6735;51.456;12.626;2022-12-07T04:37:02;2.00;90.10
13332;DHT22;6735;51.456;12.626;2022-12-07T04:39:30;2.00;89.90
13332;DHT22;6735;51.456;12.626;2022-12-07T04:41:56;2.00;89.90
13332;DHT22;6735;51.456;12.626;2022-12-07T04:44:23;2.00;89.90
13332;DHT22;6735;51.456;12.626;2022-12-07T04:46:49;2.00;89.90
13332;DHT22;6735;51.456;12.626;2022-12-07T04:49:15;2.10;90.00
13332;DHT22;6735;51.456;12.626;2022-12-07T04:51:41;2.10;90.00
13332;DHT22;6735;51.456;12.626;2022-12-07T04:54:07;2.10;90.00
13332;DHT22;6735;51.456;12.626;2022-12-07T04:56:34;2.10;90.00
13332;DHT22;6735;51.456;12.626;2022-12-07T04:59:01;2.10;90.00
13332;DHT22;6735;51.456;12.626;2022-12-07T05:01:26;2.10;90.00
13332;DHT22;6735;51.456;12.626;2022-12-07T05:03:52;2.10;90.00
13332;DHT22;6735;51.456;12.626;2022-12-07T05:06:17;2.10;90.00
13332;DHT22;6735;51.456;12.626;2022-12-07T05:08:43;2.20;90.00
13332;DHT22;6735;51.456;12.626;2022-12-07T05:11:10;2.20;90.00
13332;DHT22;6735;51.456;12.626;2022-12-07T05:13:56;2.20;90.10
13332;DHT22;6735;51.456;12.626;2022-12-07T05:16:21;2.20;90.10
13332;DHT22;6735;51.456;12.626;2022-12-07T05:18:47;2.20;90.20
13332;DHT22;6735;51.456;12.626;2022-12-07T05:21:12;2.30;90.20
13332;DHT22;6735;51.456;12.626;2022-12-07T05:23:38;2.30;90.10
13332;DHT22;6735;51.456;12.626;2022-12-07T05:26:03;2.30;90.00
13332;DHT22;6735;51.456;12.626;2022-12-07T05:28:29;2.20;90.00
13332;DHT22;6735;51.456;12.626;2022-12-07T05:30:54;2.20;90.10
13332;DHT22;6735;51.456;12.626;2022-12-07T05:33:20;2.20;90.10
13332;DHT22;6735;51.456;12.626;2022-12-07T05:35:45;2.20;90.20
13332;DHT22;6735;51.456;12.626;2022-12-07T05:38:11;2.20;90.30
13332;DHT22;6735;51.456;12.626;2022-12-07T05:40:37;2.20;90.40
13332;DHT22;6735;51.456;12.626;2022-12-07T05:43:02;2.20;90.40
13332;DHT22;6735;51.456;12.626;2022-12-07T05:45:28;2.20;90.40
13332;DHT22;6735;51.456;12.626;2022-12-07T05:47:53;2.30;90.50
13332;DHT22;6735;51.456;12.626;2022-12-07T05:50:19;2.30;90.50
13332;DHT22;6735;51.456;12.626;2022-12-07T05:52:44;2.30;90.50
13332;DHT22;6735;51.456;12.626;2022-12-07T05:55:10;2.30;90.50
13332;DHT22;6735;51.456;12.626;2022-12-07T05:57:36;2.40;90.60
13332;DHT22;6735;51.456;12.626;2022-12-07T06:00:02;2.40;90.60
13332;DHT22;6735;51.456;12.626;2022-12-07T06:02:28;2.40;90.70
13332;DHT22;6735;51.456;12.626;2022-12-07T06:04:53;2.50;90.70
13332;DHT22;6735;51.456;12.626;2022-12-07T06:07:18;2.40;90.70
13332;DHT22;6735;51.456;12.626;2022-12-07T06:09:44;2.50;90.70
13332;DHT22;6735;51.456;12.626;2022-12-07T06:12:11;2.50;90.60
13332;DHT22;6735;51.456;12.626;2022-12-07T06:14:56;2.50;90.60
13332;DHT22;6735;51.456;12.626;2022-12-07T06:17:21;2.50;90.70
13332;DHT22;6735;51.456;12.626;2022-12-07T06:19:47;2.60;90.70
13332;DHT22;6735;51.456;12.626;2022-12-07T06:22:13;2.60;90.80
13332;DHT22;6735;51.456;12.626;2022-12-07T06:24:39;2.60;90.80
13332;DHT22;6735;51.456;12.626;2022-12-07T06:27:05;2.60;90.70
13332;DHT22;6735;51.456;12.626;2022-12-07T06:29:31;2.70;90.70
13332;DHT22;6735;51.456;12.626;2022-12-07T06:31:57;2.70;90.60
13332;DHT22;6735;51.456;12.626;2022-12-07T06:34:24;2.70;90.60
13332;DHT22;6735;51.456;12.626;2022-12-07T06:36:50;2.70;90.60
13332;DHT22;6735;51.456;12.626;2022-12-07T06:39:25;2.60;90.50
13332;DHT22;6735;51.456;12.626;2022-12-07T06:41:51;2.60;90.40
13332;DHT22;6735;51.456;12.626;2022-12-07T06:44:20;2.60;90.30
13332;DHT22;6735;51.456;12.626;2022-12-07T06:46:47;2.60;90.30
13332;DHT22;6735;51.456;12.626;2022-12-07T06:49:13;2.50;90.40
13332;DHT22;6735;51.456;12.626;2022-12-07T06:51:38;2.50;90.50
13332;DHT22;6735;51.456;12.626;2022-12-07T06:54:08;2.50;90.60
13332;DHT22;6735;51.456;12.626;2022-12-07T06:56:33;2.50;90.60
13332;DHT22;6735;51.456;12.626;2022-12-07T06:58:59;2.50;90.70
13332;DHT22;6735;51.456;12.626;2022-12-07T07:01:24;2.50;90.70
13332;DHT22;6735;51.456;12.626;2022-12-07T07:03:50;2.50;90.70
13332;DHT22;6735;51.456;12.626;2022-12-07T07:06:15;2.50;90.60
13332;DHT22;6735;51.456;12.626;2022-12-07T07:08:41;2.50;90.60
13332;DHT22;6735;51.456;12.626;2022-12-07T07:11:07;2.50;90.60
13332;DHT22;6735;51.456;12.626;2022-12-07T07:13:33;2.60;90.80
13332;DHT22;6735;51.456;12.626;2022-12-07T07:15:59;2.60;90.90
13332;DHT22;6735;51.456;12.626;2022-12-07T07:18:25;2.70;90.80
13332;DHT22;6735;51.456;12.626;2022-12-07T07:20:51;2.70;90.70
13332;DHT22;6735;51.456;12.626;2022-12-07T07:23:17;2.70;90.60
13332;DHT22;6735;51.456;12.626;2022-12-07T07:25:44;2.70;90.80
13332;DHT22;6735;51.456;12.626;2022-12-07T07:28:09;2.80;90.80
13332;DHT22;6735;51.456;12.626;2022-12-07T07:30:35;2.80;90.70
13332;DHT22;6735;51.456;12.626;2022-12-07T07:33:01;2.80;90.70
13332;DHT22;6735;51.456;12.626;2022-12-07T07:35:29;2.90;90.60
13332;DHT22;6735;51.456;12.626;2022-12-07T07:37:55;2.90;90.60
13332;DHT22;6735;51.456;12.626;2022-12-07T07:40:20;3.00;90.50
13332;DHT22;6735;51.456;12.626;2022-12-07T07:42:50;3.10;90.50
13332;DHT22;6735;51.456;12.626;2022-12-07T07:45:17;3.10;90.50
13332;DHT22;6735;51.456;12.626;2022-12-07T07:47:43;3.10;90.50
13332;DHT22;6735;51.456;12.626;2022-12-07T07:50:09;3.10;90.50
13332;DHT22;6735;51.456;12.626;2022-12-07T07:52:35;3.20;90.30
13332;DHT22;6735;51.456;12.626;2022-12-07T07:55:00;3.20;90.40
13332;DHT22;6735;51.456;12.626;2022-12-07T07:57:26;3.30;90.30
13332;DHT22;6735;51.456;12.626;2022-12-07T07:59:52;3.30;90.20
13332;DHT22;6735;51.456;12.626;2022-12-07T08:02:19;3.30;90.20
13332;DHT22;6735;51.456;12.626;2022-12-07T08:04:45;3.30;90.20
13332;DHT22;6735;51.456;12.626;2022-12-07T08:07:11;3.40;90.10
13332;DHT22;6735;51.456;12.626;2022-12-07T08:09:37;3.40;90.00
13332;DHT22;6735;51.456;12.626;2022-12-07T08:12:03;3.40;89.80
13332;DHT22;6735;51.456;12.626;2022-12-07T08:14:29;3.40;89.90
13332;DHT22;6735;51.456;12.626;2022-12-07T08:16:54;3.40;89.90
13332;DHT22;6735;51.456;12.626;2022-12-07T08:19:20;3.40;89.80
13332;DHT22;6735;51.456;12.626;2022-12-07T08:21:46;3.40;89.60
13332;DHT22;6735;51.456;12.626;2022-12-07T08:24:11;3.40;89.50
13332;DHT22;6735;51.456;12.626;2022-12-07T08:26:37;3.40;89.50
13332;DHT22;6735;51.456;12.626;2022-12-07T08:29:03;3.50;89.40
13332;DHT22;6735;51.456;12.626;2022-12-07T08:31:29;3.50;89.30
13332;DHT22;6735;51.456;12.626;2022-12-07T08:33:54;3.60;89.30
13332;DHT22;6735;51.456;12.626;2022-12-07T08:36:20;3.70;89.20
13332;DHT22;6735;51.456;12.626;2022-12-07T08:38:48;3.80;89.30
13332;DHT22;6735;51.456;12.626;2022-12-07T08:41:14;3.90;89.00
13332;DHT22;6735;51.456;12.626;2022-12-07T08:43:40;4.10;89.00
13332;DHT22;6735;51.456;12.626;2022-12-07T08:46:11;4.10;88.80
13332;DHT22;6735;51.456;12.626;2022-12-07T08:48:52;4.10;88.70
13332;DHT22;6735;51.456;12.626;2022-12-07T08:51:19;4.20;88.50
13332;DHT22;6735;51.456;12.626;2022-12-07T08:53:45;4.20;88.70
13332;DHT22;6735;51.456;12.626;2022-12-07T08:56:12;4.20;88.70
13332;DHT22;6735;51.456;12.626;2022-12-07T08:58:38;4.20;88.60
13332;DHT22;6735;51.456;12.626;2022-12-07T09:01:04;4.20;88.30
13332;DHT22;6735;51.456;12.626;2022-12-07T09:03:30;4.20;88.40
13332;DHT22;6735;51.456;12.626;2022-12-07T09:05:57;4.20;88.40
13332;DHT22;6735;51.456;12.626;2022-12-07T09:08:26;4.30;88.40
13332;DHT22;6735;51.456;12.626;2022-12-07T09:10:53;4.40;88.40
13332;DHT22;6735;51.456;12.626;2022-12-07T09:13:18;4.50;88.30
13332;DHT22;6735;51.456;12.626;2022-12-07T09:15:44;4.50;87.90
13332;DHT22;6735;51.456;12.626;2022-12-07T09:18:09;4.60;88.00
13332;DHT22;6735;51.456;12.626;2022-12-07T09:20:35;4.60;87.90
13332;DHT22;6735;51.456;12.626;2022-12-07T09:23:00;4.60;87.80
13332;DHT22;6735;51.456;12.626;2022-12-07T09:25:26;4.60;87.70
13332;DHT22;6735;51.456;12.626;2022-12-07T09:27:58;4.60;87.90
13332;DHT22;6735;51.456;12.626;2022-12-07T09:30:24;4.70;87.90
13332;DHT22;6735;51.456;12.626;2022-12-07T09:32:53;4.70;87.90
13332;DHT22;6735;51.456;12.626;2022-12-07T09:35:19;4.70;87.80
13332;DHT22;6735;51.456;12.626;2022-12-07T09:37:44;4.80;87.50
13332;DHT22;6735;51.456;12.626;2022-12-07T09:40:10;4.80;87.70
13332;DHT22;6735;51.456;12.626;2022-12-07T09:42:38;4.80;87.80
13332;DHT22;6735;51.456;12.626;2022-12-07T09:45:39;4.90;87.90
13332;DHT22;6735;51.456;12.626;2022-12-07T09:48:04;4.90;87.60
13332;DHT22;6735;51.456;12.626;2022-12-07T09:50:30;5.00;87.50
13332;DHT22;6735;51.456;12.626;2022-12-07T09:53:07;5.10;87.60
13332;DHT22;6735;51.456;12.626;2022-12-07T09:55:43;5.00;87.30
13332;DHT22;6735;51.456;12.626;2022-12-07T09:58:20;5.10;87.50
13332;DHT22;6735;51.456;12.626;2022-12-07T10:00:46;5.10;87.50
13332;DHT22;6735;51.456;12.626;2022-12-07T10:03:12;5.20;87.50
13332;DHT22;6735;51.456;12.626;2022-12-07T10:05:44;5.10;87.30
13332;DHT22;6735;51.456;12.626;2022-12-07T10:08:14;5.10;87.10
13332;DHT22;6735;51.456;12.626;2022-12-07T10:10:41;5.10;87.10
13332;DHT22;6735;51.456;12.626;2022-12-07T10:13:12;5.00;87.10
13332;DHT22;6735;51.456;12.626;2022-12-07T10:18:38;5.00;87.30
13332;DHT22;6735;51.456;12.626;2022-12-07T10:23:34;5.00;87.30
13332;DHT22;6735;51.456;12.626;2022-12-07T10:26:20;5.10;87.40
13332;DHT22;6735;51.456;12.626;2022-12-07T10:28:47;5.20;87.40
13332;DHT22;6735;51.456;12.626;2022-12-07T10:31:19;5.10;87.00
13332;DHT22;6735;51.456;12.626;2022-12-07T10:33:55;5.20;87.40
13332;DHT22;6735;51.456;12.626;2022-12-07T10:36:39;5.10;87.30
13332;DHT22;6735;51.456;12.626;2022-12-07T10:39:16;5.20;87.40
13332;DHT22;6735;51.456;12.626;2022-12-07T10:41:57;5.30;87.40
13332;DHT22;6735;51.456;12.626;2022-12-07T10:44:28;5.30;87.20
13332;DHT22;6735;51.456;12.626;2022-12-07T10:47:08;5.30;87.00
13332;DHT22;6735;51.456;12.626;2022-12-07T10:50:02;5.30;87.30
13332;DHT22;6735;51.456;12.626;2022-12-07T10:52:55;5.20;87.00
13332;DHT22;6735;51.456;12.626;2022-12-07T10:58:16;5.20;87.20
13332;DHT22;6735;51.456;12.626;2022-12-07T11:01:02;5.20;87.20
13332;DHT22;6735;51.456;12.626;2022-12-07T11:03:39;5.30;87.40
13332;DHT22;6735;51.456;12.626;2022-12-07T11:09:03;5.40;86.90
13332;DHT22;6735;51.456;12.626;2022-12-07T11:12:32;5.40;86.60
13332;DHT22;6735;51.456;12.626;2022-12-07T11:14:52;5.40;86.60
13332;DHT22;6735;51.456;12.626;2022-12-07T11:17:45;5.50;86.60
13332;DHT22;6735;51.456;12.626;2022-12-07T11:20:28;5.50;86.60
13332;DHT22;6735;51.456;12.626;2022-12-07T11:26:23;5.50;86.50
13332;DHT22;6735;51.456;12.626;2022-12-07T11:28:57;5.40;86.40
13332;DHT22;6735;51.456;12.626;2022-12-07T11:31:34;5.40;86.30
13332;DHT22;6735;51.456;12.626;2022-12-07T11:34:20;5.50;86.50
13332;DHT22;6735;51.456;12.626;2022-12-07T11:36:51;5.60;86.70
13332;DHT22;6735;51.456;12.626;2022-12-07T11:39:41;5.50;86.70
13332;DHT22;6735;51.456;12.626;2022-12-07T11:42:20;5.60;86.80
13332;DHT22;6735;51.456;12.626;2022-12-07T11:44:53;5.60;86.70
13332;DHT22;6735;51.456;12.626;2022-12-07T11:47:30;5.50;86.60
13332;DHT22;6735;51.456;12.626;2022-12-07T11:50:23;5.50;86.70
13332;DHT22;6735;51.456;12.626;2022-12-07T11:55:32;5.40;86.00
13332;DHT22;6735;51.456;12.626;2022-12-07T12:03:50;5.30;86.00
13332;DHT22;6735;51.456;12.626;2022-12-07T12:06:16;5.30;86.00
13332;DHT22;6735;51.456;12.626;2022-12-07T12:11:39;5.30;86.40
13332;DHT22;6735;51.456;12.626;2022-12-07T12:20:32;5.20;86.30
13332;DHT22;6735;51.456;12.626;2022-12-07T12:23:24;5.20;85.90
13332;DHT22;6735;51.456;12.626;2022-12-07T12:25:55;5.20;85.80
13332;DHT22;6735;51.456;12.626;2022-12-07T12:28:33;5.20;85.30
13332;DHT22;6735;51.456;12.626;2022-12-07T12:31:15;5.30;85.40
13332;DHT22;6735;51.456;12.626;2022-12-07T12:54:21;5.60;84.70
13332;DHT22;6735;51.456;12.626;2022-12-07T13:02:26;5.60;84.60
13332;DHT22;6735;51.456;12.626;2022-12-07T13:15:44;5.80;85.30
13332;DHT22;6735;51.456;12.626;2022-12-07T13:26:35;5.40;83.90
13332;DHT22;6735;51.456;12.626;2022-12-07T13:29:11;5.00;83.80
13332;DHT22;6735;51.456;12.626;2022-12-07T13:31:43;4.70;84.10
13332;DHT22;6735;51.456;12.626;2022-12-07T13:34:34;4.50;84.70
13332;DHT22;6735;51.456;12.626;2022-12-07T13:37:14;4.50;85.20
13332;DHT22;6735;51.456;12.626;2022-12-07T13:39:50;4.40;85.40
13332;DHT22;6735;51.456;12.626;2022-12-07T13:42:26;4.50;85.70
13332;DHT22;6735;51.456;12.626;2022-12-07T13:44:52;4.40;85.60
13332;DHT22;6735;51.456;12.626;2022-12-07T13:49:54;4.10;86.00
13332;DHT22;6735;51.456;12.626;2022-12-07T13:52:30;3.90;86.00
13332;DHT22;6735;51.456;12.626;2022-12-07T13:55:05;3.90;86.60
13332;DHT22;6735;51.456;12.626;2022-12-07T13:57:36;4.10;87.00
13332;DHT22;6735;51.456;12.626;2022-12-07T14:00:13;4.10;87.00
13332;DHT22;6735;51.456;12.626;2022-12-07T14:02:56;4.30;87.00
13332;DHT22;6735;51.456;12.626;2022-12-07T14:05:42;4.40;86.90
13332;DHT22;6735;51.456;12.626;2022-12-07T14:10:40;4.40;86.90
13332;DHT22;6735;51.456;12.626;2022-12-07T14:13:36;4.50;87.00
13332;DHT22;6735;51.456;12.626;2022-12-07T14:16:05;4.50;86.90
13332;DHT22;6735;51.456;12.626;2022-12-07T14:18:39;4.60;87.30
13332;DHT22;6735;51.456;12.626;2022-12-07T14:21:14;4.60;87.40
13332;DHT22;6735;51.456;12.626;2022-12-07T14:23:41;4.60;87.30
13332;DHT22;6735;51.456;12.626;2022-12-07T14:26:11;4.70;87.20
13332;DHT22;6735;51.456;12.626;2022-12-07T14:28:39;4.70;87.10
13332;DHT22;6735;51.456;12.626;2022-12-07T14:31:13;4.70;87.30
13332;DHT22;6735;51.456;12.626;2022-12-07T14:33:40;4.80;86.90
13332;DHT22;6735;51.456;12.626;2022-12-07T14:36:08;4.80;86.90
13332;DHT22;6735;51.456;12.626;2022-12-07T14:38:33;4.80;87.00
13332;DHT22;6735;51.456;12.626;2022-12-07T14:40:59;4.80;87.00
13332;DHT22;6735;51.456;12.626;2022-12-07T14:43:45;4.80;86.90
13332;DHT22;6735;51.456;12.626;2022-12-07T14:46:11;4.70;86.90
13332;DHT22;6735;51.456;12.626;2022-12-07T14:48:36;4.70;86.80
13332;DHT22;6735;51.456;12.626;2022-12-07T14:51:02;4.70;86.60
13332;DHT22;6735;51.456;12.626;2022-12-07T14:53:33;4.80;86.80
13332;DHT22;6735;51.456;12.626;2022-12-07T14:55:59;4.70;86.60
13332;DHT22;6735;51.456;12.626;2022-12-07T14:58:24;4.60;86.20
13332;DHT22;6735;51.456;12.626;2022-12-07T15:00:50;4.60;86.30
13332;DHT22;6735;51.456;12.626;2022-12-07T15:03:15;4.60;86.20
13332;DHT22;6735;51.456;12.626;2022-12-07T15:05:41;4.50;86.30
13332;DHT22;6735;51.456;12.626;2022-12-07T15:08:09;4.50;86.30
13332;DHT22;6735;51.456;12.626;2022-12-07T15:10:35;4.60;86.40
13332;DHT22;6735;51.456;12.626;2022-12-07T15:13:04;4.50;86.40
13332;DHT22;6735;51.456;12.626;2022-12-07T15:15:50;4.50;86.30
13332;DHT22;6735;51.456;12.626;2022-12-07T15:18:17;4.50;86.60
13332;DHT22;6735;51.456;12.626;2022-12-07T15:20:43;4.40;86.50
13332;DHT22;6735;51.456;12.626;2022-12-07T15:23:10;4.40;86.70
13332;DHT22;6735;51.456;12.626;2022-12-07T15:25:36;4.50;86.80
13332;DHT22;6735;51.456;12.626;2022-12-07T15:28:01;4.40;86.70
13332;DHT22;6735;51.456;12.626;2022-12-07T15:30:27;4.40;86.80
13332;DHT22;6735;51.456;12.626;2022-12-07T15:32:53;4.40;86.90
13332;DHT22;6735;51.456;12.626;2022-12-07T15:35:20;4.50;87.00
13332;DHT22;6735;51.456;12.626;2022-12-07T15:37:47;4.40;86.90
13332;DHT22;6735;51.456;12.626;2022-12-07T15:40:13;4.40;86.80
13332;DHT22;6735;51.456;12.626;2022-12-07T15:42:39;4.40;86.90
13332;DHT22;6735;51.456;12.626;2022-12-07T15:45:06;4.40;86.80
13332;DHT22;6735;51.456;12.626;2022-12-07T15:47:38;4.40;86.70
13332;DHT22;6735;51.456;12.626;2022-12-07T15:50:06;4.40;86.40
13332;DHT22;6735;51.456;12.626;2022-12-07T15:52:32;4.40;86.70
13332;DHT22;6735;51.456;12.626;2022-12-07T15:54:58;4.40;86.80
13332;DHT22;6735;51.456;12.626;2022-12-07T15:57:25;4.40;86.60
13332;DHT22;6735;51.456;12.626;2022-12-07T15:59:51;4.50;86.60
13332;DHT22;6735;51.456;12.626;2022-12-07T16:02:16;4.40;86.60
13332;DHT22;6735;51.456;12.626;2022-12-07T16:04:42;4.40;86.60
13332;DHT22;6735;51.456;12.626;2022-12-07T16:07:07;4.40;86.60
13332;DHT22;6735;51.456;12.626;2022-12-07T16:09:33;4.40;86.70
13332;DHT22;6735;51.456;12.626;2022-12-07T16:11:59;4.40;86.90
13332;DHT22;6735;51.456;12.626;2022-12-07T16:14:25;4.40;86.80
13332;DHT22;6735;51.456;12.626;2022-12-07T16:16:51;4.40;86.80
13332;DHT22;6735;51.456;12.626;2022-12-07T16:19:16;4.40;86.70
13332;DHT22;6735;51.456;12.626;2022-12-07T16:21:42;4.50;86.70
13332;DHT22;6735;51.456;12.626;2022-12-07T16:24:08;4.60;86.60
13332;DHT22;6735;51.456;12.626;2022-12-07T16:26:35;4.60;86.50
13332;DHT22;6735;51.456;12.626;2022-12-07T16:29:01;4.40;86.10
13332;DHT22;6735;51.456;12.626;2022-12-07T16:31:27;4.30;86.10
13332;DHT22;6735;51.456;12.626;2022-12-07T16:33:54;4.30;86.20
13332;DHT22;6735;51.456;12.626;2022-12-07T16:36:21;4.40;86.50
13332;DHT22;6735;51.456;12.626;2022-12-07T16:38:49;4.50;86.30
13332;DHT22;6735;51.456;12.626;2022-12-07T16:41:15;4.40;85.90
13332;DHT22;6735;51.456;12.626;2022-12-07T16:43:40;4.40;85.90
13332;DHT22;6735;51.456;12.626;2022-12-07T16:46:06;4.30;86.00
13332;DHT22;6735;51.456;12.626;2022-12-07T16:48:39;4.20;86.00
13332;DHT22;6735;51.456;12.626;2022-12-07T16:51:07;4.20;86.10
13332;DHT22;6735;51.456;12.626;2022-12-07T16:53:34;4.10;86.20
13332;DHT22;6735;51.456;12.626;2022-12-07T16:56:01;4.10;86.30
13332;DHT22;6735;51.456;12.626;2022-12-07T16:58:26;4.10;86.20
13332;DHT22;6735;51.456;12.626;2022-12-07T17:00:52;4.10;86.40
13332;DHT22;6735;51.456;12.626;2022-12-07T17:03:18;4.10;86.60
13332;DHT22;6735;51.456;12.626;2022-12-07T17:05:44;4.00;86.60
13332;DHT22;6735;51.456;12.626;2022-12-07T17:08:10;4.00;86.70
13332;DHT22;6735;51.456;12.626;2022-12-07T17:10:39;4.00;86.80
13332;DHT22;6735;51.456;12.626;2022-12-07T17:13:05;4.00;86.90
13332;DHT22;6735;51.456;12.626;2022-12-07T17:16:03;4.00;86.90
13332;DHT22;6735;51.456;12.626;2022-12-07T17:18:30;4.00;86.90
13332;DHT22;6735;51.456;12.626;2022-12-07T17:21:04;4.00;86.90
13332;DHT22;6735;51.456;12.626;2022-12-07T17:23:31;3.90;87.00
13332;DHT22;6735;51.456;12.626;2022-12-07T17:26:07;3.90;87.10
13332;DHT22;6735;51.456;12.626;2022-12-07T17:28:33;4.00;87.10
13332;DHT22;6735;51.456;12.626;2022-12-07T17:30:59;3.90;87.00
13332;DHT22;6735;51.456;12.626;2022-12-07T17:33:24;3.90;87.00
13332;DHT22;6735;51.456;12.626;2022-12-07T17:35:50;3.90;87.50
13332;DHT22;6735;51.456;12.626;2022-12-07T17:38:15;3.90;87.50
13332;DHT22;6735;51.456;12.626;2022-12-07T17:40:40;3.90;87.40
13332;DHT22;6735;51.456;12.626;2022-12-07T17:43:06;3.90;87.40
13332;DHT22;6735;51.456;12.626;2022-12-07T17:45:31;3.90;87.40
13332;DHT22;6735;51.456;12.626;2022-12-07T17:47:57;3.90;87.50
13332;DHT22;6735;51.456;12.626;2022-12-07T17:50:23;3.90;87.60
13332;DHT22;6735;51.456;12.626;2022-12-07T17:53:10;3.90;87.60
13332;DHT22;6735;51.456;12.626;2022-12-07T17:55:36;3.90;87.50